createdAt,value
2023-02-24T00:00:31.936Z,5.84
2023-02-24T00:10:53.386Z,5.81
2023-02-24T00:21:16.087Z,5.90
2023-02-24T00:31:39.657Z,5.90
2023-02-24T00:42:05.548Z,5.93
2023-02-24T00:52:27.792Z,5.91
2023-02-24T01:02:49.203Z,5.90
2023-02-24T01:13:10.582Z,5.86
2023-02-24T01:23:32.426Z,5.80
2023-02-24T01:33:55.012Z,5.68
2023-02-24T01:44:22.381Z,5.56
2023-02-24T01:54:56.315Z,5.46
2023-02-24T02:05:18.448Z,5.44
2023-02-24T02:15:47.549Z,5.31
2023-02-24T02:26:10.792Z,5.29
2023-02-24T02:36:36.927Z,5.22
2023-02-24T02:47:02.309Z,5.17
2023-02-24T02:57:26.476Z,5.07
2023-02-24T03:07:51.129Z,5.01
2023-02-24T03:18:18.440Z,4.98
2023-02-24T03:28:43.758Z,4.99
2023-02-24T03:39:05.836Z,5.03
2023-02-24T03:49:27.308Z,5.01
2023-02-24T03:59:58.619Z,5.00
2023-02-24T04:10:38.749Z,5.02
2023-02-24T04:21:02.769Z,4.98
2023-02-24T04:31:26.148Z,4.95
2023-02-24T04:41:50.665Z,4.96
2023-02-24T04:52:12.471Z,4.91
2023-02-24T05:02:33.825Z,4.96
2023-02-24T05:12:58.213Z,4.95
2023-02-24T05:23:19.674Z,4.99
2023-02-24T05:33:42.733Z,4.99
2023-02-24T05:44:08.419Z,5.13
2023-02-24T05:54:40.196Z,5.10
2023-02-24T06:05:04.297Z,5.05
2023-02-24T06:15:25.692Z,5.07
2023-02-24T06:25:47.349Z,4.98
2023-02-24T06:36:08.856Z,4.92
2023-02-24T06:46:31.103Z,4.89
2023-02-24T06:56:52.449Z,4.80
2023-02-24T07:07:17.421Z,4.76
2023-02-24T07:17:38.979Z,4.70
2023-02-24T07:28:01.900Z,4.65
2023-02-24T07:38:23.404Z,4.61
2023-02-24T07:48:48.662Z,4.49
2023-02-24T07:59:13.421Z,4.32
2023-02-24T08:09:47.153Z,4.19
2023-02-24T08:20:14.761Z,4.15
2023-02-24T08:30:40.896Z,4.18
2023-02-24T08:41:04.937Z,4.21
2023-02-24T08:51:30.805Z,4.26
2023-02-24T09:02:04.334Z,4.27
2023-02-24T09:12:28.974Z,4.27
2023-02-24T09:23:07.536Z,4.29
2023-02-24T09:33:41.811Z,4.28
2023-02-24T09:44:18.217Z,4.37
2023-02-24T09:54:39.822Z,4.45
2023-02-24T10:05:09.299Z,4.50
2023-02-24T10:15:56.891Z,4.55
2023-02-24T10:26:31.877Z,4.59
2023-02-24T10:36:53.435Z,4.74
2023-02-24T10:47:17.773Z,4.78
2023-02-24T10:57:58.537Z,5.01
2023-02-24T11:08:39.482Z,5.34
2023-02-24T11:19:00.925Z,5.60
2023-02-24T11:29:22.318Z,5.74
2023-02-24T11:39:55.939Z,6.13
2023-02-24T11:50:26.532Z,6.43
2023-02-24T12:00:52.520Z,6.70
2023-02-24T12:11:20.149Z,6.91
2023-02-24T12:21:48.135Z,7.16
2023-02-24T12:32:30.333Z,7.27
2023-02-24T12:42:51.832Z,7.58
2023-02-24T12:53:16.206Z,7.81
2023-02-24T13:03:37.543Z,8.04
2023-02-24T13:14:01.924Z,8.00
2023-02-24T13:24:24.197Z,7.91
2023-02-24T13:34:45.644Z,8.11
2023-02-24T13:45:10.074Z,8.18
2023-02-24T13:55:51.709Z,8.20
2023-02-24T14:06:21.116Z,8.32
2023-02-24T14:16:45.505Z,8.11
2023-02-24T14:27:06.904Z,8.48
2023-02-24T14:37:29.746Z,8.34
2023-02-24T14:47:52.026Z,8.14
2023-02-24T14:58:22.154Z,8.22
2023-02-24T15:08:46.282Z,8.03
2023-02-24T15:19:23.959Z,7.65
2023-02-24T15:29:56.491Z,7.52
2023-02-24T15:40:22.477Z,7.38
2023-02-24T15:50:43.881Z,7.24
2023-02-24T16:01:05.319Z,7.06
2023-02-24T16:11:29.054Z,6.94
2023-02-24T16:21:50.493Z,6.86
2023-02-24T16:32:12.784Z,6.73
2023-02-24T16:42:34.325Z,6.64
2023-02-24T16:52:55.872Z,6.63
2023-02-24T17:03:17.208Z,6.51
2023-02-24T17:13:38.726Z,6.51
2023-02-24T17:24:00.306Z,6.52
2023-02-24T17:34:23.930Z,6.40
2023-02-24T17:44:45.443Z,6.34
2023-02-24T17:55:07.533Z,6.28
2023-02-24T18:05:28.914Z,6.24
2023-02-24T18:15:50.307Z,6.23
2023-02-24T18:26:12.819Z,6.30
2023-02-24T18:36:34.351Z,6.28
2023-02-24T18:46:55.724Z,6.27
2023-02-24T18:57:17.125Z,6.34
2023-02-24T19:07:38.585Z,6.41
2023-02-24T19:18:01.048Z,6.36
2023-02-24T19:28:22.515Z,6.36
2023-02-24T19:38:43.923Z,6.22
2023-02-24T19:49:05.467Z,6.08
2023-02-24T19:59:26.881Z,5.99
2023-02-24T20:09:48.357Z,5.98
2023-02-24T20:20:10.143Z,5.93
2023-02-24T20:30:31.483Z,5.95
2023-02-24T20:41:00.424Z,5.99
2023-02-24T20:51:23.092Z,5.96
2023-02-24T21:01:47.148Z,5.85
2023-02-24T21:12:09.569Z,5.84
2023-02-24T21:22:31.325Z,5.70
2023-02-24T21:32:52.775Z,5.66
2023-02-24T21:43:14.203Z,5.69
2023-02-24T21:53:38.818Z,5.66
2023-02-24T22:04:01.617Z,5.70
2023-02-24T22:14:22.969Z,5.70
2023-02-24T22:24:44.338Z,5.77
2023-02-24T22:35:05.930Z,5.83
2023-02-24T22:45:27.309Z,5.86
2023-02-24T22:55:49.129Z,5.81
2023-02-24T23:06:13.471Z,5.65
2023-02-24T23:16:35.835Z,5.52
2023-02-24T23:26:57.969Z,5.47
2023-02-24T23:37:20.084Z,5.39
2023-02-24T23:47:41.426Z,5.34
2023-02-24T23:58:03.651Z,5.32
